Main page
METAR-TAF:

METAR-TAF

Airports :

Phrae Airport

Phrae, Thailand

latitude: 18-10N, longitude: 100-10E, elevation: 161 m

Current weather observation

The report was made 2 hours and 25 minutes ago, at 11:00 UTC
Wind 6 kt from the South/Southwest
Temperature 32°C
Humidity 32%
Pressure 1008 hPa
Visibility: 3000 m
haze

METAR: VTCP 281100Z 20006KT 3000 HZ NSC 32/13 Q1008 NOSIG

Time: 20:25 (13:25 UTC)

Forecast

The report was made 2 hours and 25 minutes ago, at 11:00 UTC
Forecast valid from 28 at 12 UTC to 29 at 12 UTC
Wind 8 kt from the West/Southwest
Visibility: 4000 m
Few clouds at a height of 3000 ft
haze
Becoming
from 28 at 22 UTC to 28 at 24 UTC
Visibility: 1500 m
mist
Becoming
from 29 at 04 UTC to 29 at 06 UTC
Visibility: 5000 m
haze

TAF: VTCP 281100Z 2812/2912 24008KT 4000 HZ FEW030 BECMG 2822/2824 1500 BR BECMG 2904/2906 5000 HZ

Weather observations and forecasts of more than 4000 airports (METAR and TAF reports).

The available stations are represented by yellow and red dots on the map.

Hover mouse over dot to see the name of the station.

Then click to see weather observations and forecasts.

To change the map : click on the green buttons with a black cross to zoom in, on the green button with a dash to zoom out, or on the green arrows for adjacent maps.


METAR-TAF: